createdAt,value
2022-10-18T00:01:10.791Z,3.10
2022-10-18T00:03:39.925Z,3.33
2022-10-18T00:06:09.283Z,3.20
2022-10-18T00:08:37.956Z,3.50
2022-10-18T00:11:06.881Z,3.20
2022-10-18T00:13:35.115Z,2.57
2022-10-18T00:16:07.132Z,3.03
2022-10-18T00:18:35.539Z,3.13
2022-10-18T00:21:06.866Z,3.13
2022-10-18T00:23:36.359Z,2.87
2022-10-18T00:26:08.417Z,2.67
2022-10-18T00:28:39.157Z,2.63
2022-10-18T00:31:13.772Z,2.80
2022-10-18T00:33:43.527Z,3.30
2022-10-18T00:36:12.724Z,3.37
2022-10-18T00:38:41.529Z,3.60
2022-10-18T00:41:11.873Z,3.33
2022-10-18T00:43:55.943Z,3.40
2022-10-18T00:46:27.198Z,2.83
2022-10-18T00:48:57.499Z,3.10
2022-10-18T00:51:28.986Z,3.53
2022-10-18T00:53:57.262Z,3.57
2022-10-18T00:56:25.535Z,2.97
2022-10-18T00:58:54.133Z,3.43
2022-10-18T01:01:25.859Z,4.03
2022-10-18T01:03:58.869Z,3.53
2022-10-18T01:06:28.852Z,3.87
2022-10-18T01:09:11.252Z,4.67
2022-10-18T01:11:59.323Z,4.40
2022-10-18T01:14:41.045Z,4.07
2022-10-18T01:17:15.094Z,4.53
2022-10-18T01:20:16.705Z,5.77
2022-10-18T01:22:48.434Z,5.57
2022-10-18T01:25:29.731Z,5.07
2022-10-18T01:28:05.288Z,6.33
2022-10-18T01:30:49.430Z,6.70
2022-10-18T01:33:28.093Z,6.87
2022-10-18T01:36:04.751Z,7.03
2022-10-18T01:38:35.936Z,6.40
2022-10-18T01:41:06.148Z,6.37
2022-10-18T01:43:36.509Z,6.30
2022-10-18T01:46:06.879Z,6.70
2022-10-18T01:48:38.156Z,6.57
2022-10-18T01:51:06.965Z,6.67
2022-10-18T01:53:36.214Z,5.83
2022-10-18T01:56:38.316Z,6.73
2022-10-18T01:59:17.706Z,6.40
2022-10-18T02:01:58.219Z,7.37
2022-10-18T02:04:34.131Z,6.63
2022-10-18T02:07:09.755Z,6.53
2022-10-18T02:09:43.026Z,6.50
2022-10-18T02:12:15.115Z,7.57
2022-10-18T02:14:46.363Z,7.27
2022-10-18T02:17:18.587Z,8.03
2022-10-18T02:19:51.543Z,7.40
2022-10-18T02:22:21.556Z,8.67
2022-10-18T02:24:54.440Z,7.47
2022-10-18T02:27:23.769Z,7.60
2022-10-18T02:29:52.794Z,7.17
2022-10-18T02:32:29.427Z,7.23
2022-10-18T02:35:01.980Z,8.30
2022-10-18T02:37:35.274Z,8.90
2022-10-18T02:40:05.476Z,9.33
2022-10-18T02:42:37.983Z,8.33
2022-10-18T02:45:08.120Z,7.57
2022-10-18T02:47:37.892Z,9.20
2022-10-18T02:50:07.191Z,8.33
2022-10-18T02:52:35.734Z,8.77
2022-10-18T02:55:04.418Z,9.50
2022-10-18T02:57:33.016Z,8.03
2022-10-18T03:00:01.485Z,7.50
2022-10-18T03:02:29.862Z,7.93
2022-10-18T03:04:59.536Z,8.60
2022-10-18T03:07:27.876Z,7.60
2022-10-18T03:09:57.192Z,7.83
2022-10-18T03:12:25.402Z,6.27
2022-10-18T03:14:53.681Z,7.47
2022-10-18T03:17:21.989Z,7.57
2022-10-18T03:19:50.238Z,7.57
2022-10-18T03:22:20.033Z,6.77
2022-10-18T03:24:48.317Z,6.97
2022-10-18T03:27:16.522Z,6.57
2022-10-18T03:29:44.776Z,5.40
2022-10-18T03:32:13.044Z,5.53
2022-10-18T03:34:41.330Z,5.73
2022-10-18T03:37:09.845Z,6.07
2022-10-18T03:39:39.478Z,6.70
2022-10-18T03:42:07.805Z,6.60
2022-10-18T03:44:36.257Z,6.20
2022-10-18T03:47:04.494Z,7.70
2022-10-18T03:52:01.902Z,7.53
2022-10-18T03:54:30.289Z,7.30
2022-10-18T03:57:00.431Z,6.13
2022-10-18T03:59:28.753Z,6.47
2022-10-18T04:01:57.390Z,6.07
2022-10-18T04:04:26.786Z,6.17
2022-10-18T04:06:55.060Z,6.07
2022-10-18T04:09:23.326Z,7.10
2022-10-18T04:11:51.712Z,7.20
2022-10-18T04:14:22.259Z,7.50
2022-10-18T04:16:50.603Z,7.63
2022-10-18T04:19:18.962Z,8.13
2022-10-18T04:21:47.266Z,7.47
2022-10-18T04:24:17.529Z,8.43
2022-10-18T04:26:45.868Z,8.70
2022-10-18T04:29:14.051Z,9.40
2022-10-18T04:31:43.727Z,10.10
2022-10-18T04:34:12.446Z,9.53
2022-10-18T04:36:40.704Z,9.37
2022-10-18T04:39:08.901Z,9.63
2022-10-18T04:41:37.384Z,9.17
2022-10-18T04:44:05.899Z,9.50
2022-10-18T04:46:34.220Z,9.47
2022-10-18T04:49:03.924Z,8.60
2022-10-18T04:51:32.280Z,8.77
2022-10-18T04:54:00.492Z,8.70
2022-10-18T04:56:28.767Z,10.00
2022-10-18T04:58:57.024Z,8.73
2022-10-18T05:01:25.329Z,8.53
2022-10-18T05:03:54.483Z,8.97
2022-10-18T05:06:24.643Z,8.43
2022-10-18T05:08:52.910Z,8.30
2022-10-18T05:11:21.148Z,8.10
2022-10-18T05:13:50.913Z,9.03
2022-10-18T05:16:19.433Z,8.90
2022-10-18T05:18:47.646Z,8.10
2022-10-18T05:21:16.124Z,9.40
2022-10-18T05:23:45.793Z,8.63
2022-10-18T05:26:14.146Z,9.23
2022-10-18T05:28:42.475Z,9.00
2022-10-18T05:31:12.601Z,9.23
2022-10-18T05:33:41.311Z,9.10
2022-10-18T05:36:10.726Z,10.27
2022-10-18T05:38:42.244Z,10.53
2022-10-18T05:41:12.946Z,9.17
2022-10-18T05:43:41.605Z,8.60
2022-10-18T05:46:14.535Z,9.53
2022-10-18T05:48:44.681Z,9.67
2022-10-18T05:51:13.226Z,10.30
2022-10-18T05:53:41.519Z,9.13
2022-10-18T05:56:12.590Z,10.13
2022-10-18T05:58:41.768Z,9.90
2022-10-18T06:01:11.051Z,10.37
2022-10-18T06:03:39.271Z,10.53
2022-10-18T06:06:10.790Z,10.00
2022-10-18T06:08:39.979Z,10.00
2022-10-18T06:11:08.842Z,10.97
2022-10-18T06:13:42.184Z,10.53
2022-10-18T06:16:11.018Z,11.53
2022-10-18T06:18:39.586Z,10.40
2022-10-18T06:21:08.353Z,11.77
2022-10-18T06:23:37.756Z,11.07
2022-10-18T06:26:08.167Z,11.80
2022-10-18T06:28:39.291Z,11.83
2022-10-18T06:31:08.076Z,11.47
2022-10-18T06:33:37.402Z,11.73
2022-10-18T06:36:08.437Z,11.03
2022-10-18T06:38:36.718Z,12.07
2022-10-18T06:41:06.137Z,10.67
2022-10-18T06:43:35.700Z,10.67
2022-10-18T06:46:08.223Z,11.03
2022-10-18T06:48:37.001Z,11.30
2022-10-18T06:51:07.470Z,10.37
2022-10-18T06:53:44.235Z,10.70
2022-10-18T06:56:21.730Z,12.43
2022-10-18T06:58:49.984Z,12.80
2022-10-18T07:01:20.650Z,13.80
2022-10-18T07:03:50.556Z,14.27
2022-10-18T07:06:20.165Z,14.03
2022-10-18T07:08:49.705Z,14.73
2022-10-18T07:11:20.116Z,15.30
2022-10-18T07:13:48.500Z,15.27
2022-10-18T07:16:20.024Z,16.77
2022-10-18T07:18:49.897Z,15.50
2022-10-18T07:21:20.198Z,15.53
2022-10-18T07:23:48.799Z,15.87
2022-10-18T07:26:18.899Z,15.17
2022-10-18T07:28:49.408Z,15.47
2022-10-18T07:31:20.041Z,13.13
2022-10-18T07:33:48.875Z,13.97
2022-10-18T07:36:17.475Z,16.10
2022-10-18T07:38:45.857Z,15.43
2022-10-18T07:41:15.616Z,15.07
2022-10-18T07:43:45.951Z,14.93
2022-10-18T07:46:16.955Z,15.47
2022-10-18T07:48:47.089Z,15.20
2022-10-18T07:51:15.881Z,14.60
2022-10-18T07:53:44.271Z,15.30
2022-10-18T07:56:16.556Z,14.00
2022-10-18T07:58:45.594Z,15.53
2022-10-18T08:01:15.177Z,15.73
2022-10-18T08:03:44.045Z,14.73
2022-10-18T08:06:16.381Z,14.17
2022-10-18T08:08:45.108Z,14.73
2022-10-18T08:11:16.017Z,14.93
2022-10-18T08:13:44.976Z,15.40
2022-10-18T08:16:15.157Z,15.43
2022-10-18T08:18:43.660Z,15.30
2022-10-18T08:21:15.181Z,15.10
2022-10-18T08:23:44.249Z,15.07
2022-10-18T08:26:14.269Z,14.80
2022-10-18T08:28:49.078Z,13.97
2022-10-18T08:31:22.528Z,14.70
2022-10-18T08:33:50.751Z,13.57
2022-10-18T08:36:20.602Z,14.20
2022-10-18T08:38:49.440Z,12.77
2022-10-18T08:41:32.819Z,13.83
2022-10-18T08:44:08.952Z,13.50
2022-10-18T08:46:40.247Z,13.80
2022-10-18T08:49:12.915Z,12.63
2022-10-18T08:51:48.765Z,13.23
2022-10-18T08:54:23.568Z,12.77
2022-10-18T08:57:00.499Z,12.53
2022-10-18T08:59:33.434Z,14.13
2022-10-18T09:02:13.273Z,13.07
2022-10-18T09:04:50.637Z,12.50
2022-10-18T09:07:46.311Z,11.73
2022-10-18T09:10:22.811Z,12.70
2022-10-18T09:13:09.047Z,13.20
2022-10-18T09:15:44.646Z,11.97
2022-10-18T09:18:29.782Z,12.43
2022-10-18T09:21:00.250Z,12.43
2022-10-18T09:23:40.600Z,11.87
2022-10-18T09:26:16.249Z,11.50
2022-10-18T09:28:55.360Z,11.80
2022-10-18T09:31:30.467Z,11.57
2022-10-18T09:34:02.806Z,12.27
2022-10-18T09:36:35.712Z,12.03
2022-10-18T09:39:12.182Z,11.10
2022-10-18T09:41:47.166Z,10.43
2022-10-18T09:44:22.107Z,9.97
2022-10-18T09:46:56.874Z,10.07
2022-10-18T09:49:31.118Z,10.73
2022-10-18T09:52:05.013Z,9.70
2022-10-18T09:54:39.304Z,9.30
2022-10-18T09:57:13.051Z,8.67
2022-10-18T09:59:44.182Z,10.03
2022-10-18T10:02:15.990Z,9.63
2022-10-18T10:04:44.463Z,8.40
2022-10-18T10:07:17.759Z,8.77
2022-10-18T10:09:49.919Z,8.00
2022-10-18T10:12:30.395Z,8.43
2022-10-18T10:15:10.224Z,9.37
2022-10-18T10:17:38.704Z,9.30
2022-10-18T10:20:18.823Z,8.23
2022-10-18T10:22:48.843Z,8.75
2022-10-18T10:25:33.894Z,7.85
2022-10-18T10:28:05.442Z,8.43
2022-10-18T10:30:35.802Z,8.25
2022-10-18T10:33:05.221Z,7.15
2022-10-18T10:35:52.978Z,8.25
2022-10-18T10:38:26.861Z,6.57
2022-10-18T10:40:57.333Z,7.00
2022-10-18T10:43:43.314Z,5.68
2022-10-18T10:46:14.301Z,6.10
2022-10-18T10:48:57.040Z,5.97
2022-10-18T10:51:34.598Z,5.88
2022-10-18T10:54:04.589Z,5.15
2022-10-18T10:56:37.269Z,5.72
2022-10-18T10:59:14.906Z,6.25
2022-10-18T11:01:43.782Z,5.25
2022-10-18T11:04:27.089Z,4.60
2022-10-18T11:07:04.062Z,4.95
2022-10-18T11:09:45.433Z,5.00
2022-10-18T11:12:23.342Z,6.03
2022-10-18T11:15:10.126Z,5.03
2022-10-18T11:17:46.705Z,4.70
2022-10-18T11:20:24.948Z,4.95
2022-10-18T11:23:04.755Z,4.97
2022-10-18T11:25:59.744Z,4.78
2022-10-18T11:28:41.876Z,4.80
2022-10-18T11:31:19.482Z,4.93
2022-10-18T11:34:09.535Z,5.20
2022-10-18T11:36:56.051Z,4.30
2022-10-18T11:39:33.460Z,4.35
2022-10-18T11:42:09.108Z,4.90
2022-10-18T11:44:45.822Z,4.07
2022-10-18T11:47:22.658Z,4.05
2022-10-18T11:50:05.949Z,4.57
2022-10-18T11:52:47.116Z,4.75
2022-10-18T11:55:31.917Z,4.40
2022-10-18T11:58:09.217Z,4.18
2022-10-18T12:00:49.449Z,4.50
2022-10-18T12:03:28.692Z,4.65
2022-10-18T12:05:59.514Z,4.63
2022-10-18T12:08:32.492Z,4.68
2022-10-18T12:11:07.632Z,4.75
2022-10-18T12:13:40.329Z,3.90
2022-10-18T12:16:12.004Z,4.00
2022-10-18T12:21:29.679Z,3.65
2022-10-18T12:24:00.670Z,3.72
2022-10-18T12:26:32.467Z,3.80
2022-10-18T12:29:11.996Z,4.40
2022-10-18T12:31:47.286Z,4.88
2022-10-18T12:34:29.514Z,3.90
2022-10-18T12:37:21.999Z,4.38
2022-10-18T12:40:12.480Z,3.92
2022-10-18T12:42:45.018Z,4.25
2022-10-18T12:45:35.507Z,3.38
2022-10-18T12:48:09.170Z,3.60
2022-10-18T12:50:39.775Z,3.95
2022-10-18T12:53:20.849Z,3.28
2022-10-18T12:55:51.600Z,3.35
2022-10-18T12:58:31.587Z,3.80
2022-10-18T13:01:02.585Z,3.80
2022-10-18T13:03:52.404Z,4.03
2022-10-18T13:06:21.054Z,3.97
2022-10-18T13:08:51.225Z,3.88
2022-10-18T13:11:33.481Z,4.30
2022-10-18T13:14:25.073Z,4.03
2022-10-18T13:17:02.946Z,4.25
2022-10-18T13:19:41.735Z,3.78
2022-10-18T13:22:26.395Z,3.88
2022-10-18T13:25:04.930Z,3.72
2022-10-18T13:27:43.063Z,4.13
2022-10-18T13:30:31.481Z,4.57
2022-10-18T13:33:15.673Z,4.60
2022-10-18T13:35:57.182Z,4.55
2022-10-18T13:38:38.679Z,4.30
2022-10-18T13:41:09.314Z,4.82
2022-10-18T13:44:11.516Z,4.63
2022-10-18T13:47:19.271Z,4.63
2022-10-18T13:53:26.781Z,4.93
2022-10-18T13:56:22.058Z,4.65
2022-10-18T13:59:14.521Z,4.57
2022-10-18T14:01:57.619Z,5.07
2022-10-18T14:05:16.527Z,5.10
2022-10-18T14:07:52.080Z,4.65
2022-10-18T14:10:50.025Z,4.85
2022-10-18T14:13:22.559Z,4.25
2022-10-18T14:15:54.049Z,4.43
2022-10-18T14:18:31.842Z,4.78
2022-10-18T14:21:22.063Z,4.13
2022-10-18T14:23:52.347Z,4.32
2022-10-18T14:26:22.934Z,4.63
2022-10-18T14:29:03.813Z,3.97
2022-10-18T14:31:32.417Z,4.43
2022-10-18T14:34:02.196Z,3.67
2022-10-18T14:36:35.993Z,3.83
2022-10-18T14:39:06.279Z,4.57
2022-10-18T14:41:38.534Z,4.00
2022-10-18T14:44:21.291Z,4.43
2022-10-18T14:46:52.175Z,4.30
2022-10-18T14:49:21.760Z,4.18
2022-10-18T14:51:53.831Z,4.28
2022-10-18T14:54:29.036Z,4.38
2022-10-18T14:57:01.998Z,4.28
2022-10-18T14:59:33.543Z,4.57
2022-10-18T15:02:05.685Z,4.45
2022-10-18T15:04:33.983Z,4.18
2022-10-18T15:07:03.571Z,3.88
2022-10-18T15:09:33.973Z,4.20
2022-10-18T15:12:06.656Z,5.10
2022-10-18T15:14:36.112Z,4.00
2022-10-18T15:17:08.783Z,4.50
2022-10-18T15:19:41.918Z,4.53
2022-10-18T15:22:30.691Z,4.30
2022-10-18T15:25:15.818Z,4.57
2022-10-18T15:27:48.276Z,4.65
2022-10-18T15:30:20.628Z,4.88
2022-10-18T15:32:52.223Z,4.30
2022-10-18T15:35:26.369Z,4.68
2022-10-18T15:37:57.021Z,4.68
2022-10-18T15:40:36.008Z,4.88
2022-10-18T15:43:28.386Z,5.05
2022-10-18T15:46:00.293Z,4.50
2022-10-18T15:48:34.893Z,3.58
2022-10-18T15:51:05.498Z,4.18
2022-10-18T15:53:38.009Z,4.57
2022-10-18T15:56:08.826Z,4.28
2022-10-18T15:58:45.132Z,4.55
2022-10-18T16:01:20.963Z,4.07
2022-10-18T16:06:27.534Z,4.88
2022-10-18T16:08:55.956Z,4.50
2022-10-18T16:11:27.179Z,4.72
2022-10-18T16:13:59.598Z,4.82
2022-10-18T16:16:30.522Z,4.63
2022-10-18T16:18:58.965Z,5.30
2022-10-18T16:21:29.703Z,4.28
2022-10-18T16:23:58.039Z,4.70
2022-10-18T16:26:27.207Z,4.65
2022-10-18T16:28:58.096Z,5.07
2022-10-18T16:31:28.272Z,4.28
2022-10-18T16:33:57.252Z,4.82
2022-10-18T16:36:29.304Z,5.05
2022-10-18T16:39:00.812Z,5.57
2022-10-18T16:41:29.934Z,5.05
2022-10-18T16:43:59.554Z,4.80
2022-10-18T16:46:30.777Z,5.07
2022-10-18T16:48:59.087Z,5.30
2022-10-18T16:51:28.246Z,5.45
2022-10-18T16:53:56.997Z,5.28
2022-10-18T16:56:28.304Z,6.03
2022-10-18T16:58:56.646Z,5.45
2022-10-18T17:01:27.067Z,4.93
2022-10-18T17:03:55.651Z,5.55
2022-10-18T17:06:25.557Z,5.13
2022-10-18T17:08:55.402Z,5.10
2022-10-18T17:11:25.375Z,5.15
2022-10-18T17:13:53.931Z,5.40
2022-10-18T17:19:04.345Z,5.90
2022-10-18T17:21:33.669Z,6.47
2022-10-18T17:24:03.336Z,6.17
2022-10-18T17:26:32.231Z,6.80
2022-10-18T17:29:03.106Z,6.00
2022-10-18T17:31:33.678Z,5.77
2022-10-18T17:34:02.558Z,6.07
2022-10-18T17:36:31.222Z,5.90
2022-10-18T17:39:00.119Z,6.37
2022-10-18T17:41:28.752Z,6.13
2022-10-18T17:43:57.112Z,6.30
2022-10-18T17:46:25.414Z,6.00
2022-10-18T17:48:55.342Z,6.00
2022-10-18T17:51:23.952Z,6.03
2022-10-18T17:53:52.341Z,5.17
2022-10-18T17:56:20.644Z,5.80
2022-10-18T17:58:51.995Z,6.00
2022-10-18T18:01:21.833Z,5.50
2022-10-18T18:03:50.270Z,5.53
2022-10-18T18:06:22.093Z,5.87
2022-10-18T18:08:51.294Z,5.87
2022-10-18T18:11:20.063Z,5.83
2022-10-18T18:13:48.363Z,5.53
2022-10-18T18:16:18.432Z,5.70
2022-10-18T18:18:47.887Z,5.97
2022-10-18T18:21:16.187Z,5.63
2022-10-18T18:23:46.432Z,5.77
2022-10-18T18:26:15.626Z,5.97
2022-10-18T18:28:44.497Z,5.53
2022-10-18T18:31:14.495Z,6.13
2022-10-18T18:33:43.575Z,5.87
2022-10-18T18:36:12.514Z,5.57
2022-10-18T18:38:43.606Z,5.53
2022-10-18T18:41:14.712Z,6.17
2022-10-18T18:43:44.702Z,5.77
2022-10-18T18:46:13.811Z,5.73
2022-10-18T18:48:42.638Z,5.97
2022-10-18T18:51:14.259Z,6.60
2022-10-18T18:53:43.543Z,7.30
2022-10-18T18:56:15.028Z,5.93
2022-10-18T18:58:45.156Z,5.80
2022-10-18T19:01:17.389Z,6.93
2022-10-18T19:03:46.482Z,6.87
2022-10-18T19:06:17.875Z,6.47
2022-10-18T19:08:46.690Z,5.67
2022-10-18T19:11:18.164Z,5.33
2022-10-18T19:13:48.029Z,6.00
2022-10-18T19:16:22.330Z,5.90
2022-10-18T19:18:55.902Z,5.23
2022-10-18T19:21:25.461Z,6.07
2022-10-18T19:23:53.750Z,5.70
2022-10-18T19:26:29.814Z,5.93
2022-10-18T19:29:03.041Z,5.67
2022-10-18T19:31:31.407Z,6.67
2022-10-18T19:34:00.070Z,5.77
2022-10-18T19:36:29.763Z,6.37
2022-10-18T19:38:58.109Z,7.00
2022-10-18T19:41:28.815Z,5.67
2022-10-18T19:43:57.752Z,6.10
2022-10-18T19:46:26.596Z,6.03
2022-10-18T19:48:55.097Z,5.73
2022-10-18T19:51:27.888Z,5.73
2022-10-18T19:53:57.958Z,5.67
2022-10-18T19:56:29.284Z,5.53
2022-10-18T19:58:59.394Z,5.23
2022-10-18T20:01:28.975Z,5.53
2022-10-18T20:03:57.644Z,5.30
2022-10-18T20:06:26.416Z,5.57
2022-10-18T20:08:54.840Z,6.30
2022-10-18T20:11:24.493Z,6.07
2022-10-18T20:13:55.145Z,6.40
2022-10-18T20:16:28.066Z,6.13
2022-10-18T20:18:58.670Z,5.80
2022-10-18T20:21:28.467Z,6.10
2022-10-18T20:23:57.136Z,6.03
2022-10-18T20:26:26.559Z,6.60
2022-10-18T20:28:59.837Z,5.93
2022-10-18T20:31:30.445Z,5.37
2022-10-18T20:34:00.919Z,6.33
2022-10-18T20:36:30.716Z,5.80
2022-10-18T20:38:59.348Z,5.77
2022-10-18T20:41:29.447Z,6.73
2022-10-18T20:44:00.581Z,6.20
2022-10-18T20:46:32.403Z,6.60
2022-10-18T20:49:00.665Z,6.23
2022-10-18T20:51:28.981Z,5.67
2022-10-18T20:53:57.733Z,6.53
2022-10-18T20:56:27.642Z,6.20
2022-10-18T20:58:58.457Z,5.70
2022-10-18T21:01:28.940Z,6.17
2022-10-18T21:04:00.970Z,6.53
2022-10-18T21:06:31.382Z,6.73
2022-10-18T21:09:01.453Z,7.10
2022-10-18T21:11:32.201Z,7.00
2022-10-18T21:14:03.869Z,6.17
2022-10-18T21:16:33.131Z,6.60
2022-10-18T21:19:03.757Z,6.73
2022-10-18T21:21:32.117Z,7.63
2022-10-18T21:24:03.872Z,6.07
2022-10-18T21:26:35.919Z,6.80
2022-10-18T21:29:06.290Z,7.10
2022-10-18T21:31:36.953Z,7.57
2022-10-18T21:34:07.868Z,6.37
2022-10-18T21:36:37.823Z,6.73
2022-10-18T21:39:08.587Z,6.57
2022-10-18T21:41:37.871Z,6.40
2022-10-18T21:44:10.682Z,6.57
2022-10-18T21:46:40.208Z,6.77
2022-10-18T21:49:09.565Z,6.13
2022-10-18T21:51:39.164Z,6.30
2022-10-18T21:54:09.803Z,7.67
2022-10-18T21:56:38.127Z,6.87
2022-10-18T21:59:07.938Z,6.63
2022-10-18T22:01:38.416Z,6.77
2022-10-18T22:04:09.145Z,5.87
2022-10-18T22:06:38.081Z,6.77
2022-10-18T22:09:09.086Z,7.33
2022-10-18T22:11:41.730Z,6.57
2022-10-18T22:14:11.480Z,6.97
2022-10-18T22:16:39.813Z,6.50
2022-10-18T22:19:09.495Z,6.50
2022-10-18T22:21:37.799Z,6.97
2022-10-18T22:24:09.101Z,6.70
2022-10-18T22:26:39.233Z,6.10
2022-10-18T22:29:11.125Z,7.20
2022-10-18T22:31:44.496Z,7.40
2022-10-18T22:34:15.298Z,6.50
2022-10-18T22:36:44.133Z,6.67
2022-10-18T22:39:14.546Z,7.63
2022-10-18T22:41:43.868Z,6.83
2022-10-18T22:44:13.404Z,7.13
2022-10-18T22:46:43.555Z,7.93
2022-10-18T22:49:12.572Z,6.70
2022-10-18T22:51:41.329Z,7.43
2022-10-18T22:54:09.791Z,8.00
2022-10-18T22:56:38.271Z,6.60
2022-10-18T22:59:06.681Z,7.73
2022-10-18T23:01:35.047Z,7.83
2022-10-18T23:04:05.478Z,6.57
2022-10-18T23:06:35.834Z,6.33
2022-10-18T23:09:08.004Z,6.47
2022-10-18T23:11:38.181Z,5.87
2022-10-18T23:14:08.225Z,7.13
2022-10-18T23:16:36.765Z,7.40
2022-10-18T23:19:06.708Z,7.13
2022-10-18T23:21:35.369Z,7.20
2022-10-18T23:24:03.849Z,6.40
2022-10-18T23:26:34.400Z,6.70
2022-10-18T23:29:02.745Z,7.80
2022-10-18T23:31:33.025Z,6.63
2022-10-18T23:34:03.211Z,7.40
2022-10-18T23:36:34.195Z,6.80
2022-10-18T23:39:03.527Z,8.17
2022-10-18T23:41:31.841Z,7.23
2022-10-18T23:44:00.128Z,7.33
2022-10-18T23:46:28.315Z,6.40
2022-10-18T23:48:57.617Z,6.37
2022-10-18T23:51:25.787Z,7.20
2022-10-18T23:53:55.425Z,8.17
2022-10-18T23:56:23.741Z,7.90
2022-10-18T23:58:52.013Z,8.70
